Armstrong, Illinois
Current Conditions -  °F | °C
As of 11:10 AM on Wednesday 26 Nov 2014 (Local Time) from KTIP Reporting Station
Overcast Overcast  
Wind Chill: 20°   Ceiling: 800
Heat Index: 28°   Visibility: 7mi
Dew Point: 24°   Wind: 8mph
Humidity: 86%   Direction: 80°E
Pressure: 30.1"   Gusts: NA
Location:  40.31°N, 87.88°W
Report Text: KTIP 261710Z AUTO 08007KT 7SM OVC008 M02/M04 A3010 RMK AO2 T10211042
Loading
Personal Weather Stations






























Interactive Weather Map New forecast layout! Learn more

10-Day Weather Forecast

Advertisements
Track Severe Weather on mobile